createdAt,value
2018-02-15T00:00:42.551Z,50.40
2018-02-15T00:03:11.674Z,49.48
2018-02-15T00:05:41.520Z,49.41
2018-02-15T00:08:10.642Z,50.31
2018-02-15T00:10:39.735Z,49.37
2018-02-15T00:13:08.853Z,48.87
2018-02-15T00:15:37.937Z,48.89
2018-02-15T00:18:07.055Z,49.06
2018-02-15T00:20:36.173Z,50.30
2018-02-15T00:23:05.310Z,50.36
2018-02-15T00:25:34.398Z,49.73
2018-02-15T00:28:04.577Z,50.08
2018-02-15T00:30:33.673Z,50.50
2018-02-15T00:33:03.529Z,49.32
2018-02-15T00:35:32.637Z,49.53
2018-02-15T00:38:01.746Z,49.45
2018-02-15T00:40:30.886Z,49.41
2018-02-15T00:43:00.743Z,49.37
2018-02-15T00:45:29.858Z,48.96
2018-02-15T00:47:59.858Z,49.15
2018-02-15T00:50:28.954Z,49.34
2018-02-15T00:52:58.070Z,49.07
2018-02-15T00:55:27.180Z,48.83
2018-02-15T00:57:56.274Z,48.33
2018-02-15T01:00:25.358Z,48.52
2018-02-15T01:02:54.519Z,48.54
2018-02-15T01:05:23.629Z,48.64
2018-02-15T01:07:52.745Z,48.45
2018-02-15T01:10:21.841Z,47.49
2018-02-15T01:12:50.958Z,47.62
2018-02-15T01:15:20.176Z,48.59
2018-02-15T01:17:49.293Z,48.38
2018-02-15T01:20:18.444Z,47.96
2018-02-15T01:22:48.477Z,48.51
2018-02-15T01:25:17.596Z,48.49
2018-02-15T01:27:46.745Z,48.80
2018-02-15T01:30:15.837Z,48.37
2018-02-15T01:32:45.774Z,49.17
2018-02-15T01:35:15.014Z,48.56
2018-02-15T01:37:45.391Z,48.26
2018-02-15T01:40:14.518Z,49.35
2018-02-15T01:42:45.532Z,48.43
2018-02-15T01:45:15.547Z,48.88
2018-02-15T01:47:44.635Z,48.43
2018-02-15T01:50:13.743Z,49.43
2018-02-15T01:52:43.199Z,48.43
2018-02-15T01:55:12.305Z,48.94
2018-02-15T01:57:41.517Z,48.36
2018-02-15T02:00:10.636Z,48.57
2018-02-15T02:02:39.756Z,49.26
2018-02-15T02:05:09.601Z,47.43
2018-02-15T02:07:38.750Z,47.48
2018-02-15T02:10:07.856Z,48.20
2018-02-15T02:12:37.730Z,47.89
2018-02-15T02:15:06.852Z,47.86
2018-02-15T02:17:35.953Z,47.54
2018-02-15T02:20:05.075Z,47.63
2018-02-15T02:22:34.915Z,48.10
2018-02-15T02:25:04.046Z,47.67
2018-02-15T02:27:33.135Z,48.77
2018-02-15T02:30:03.031Z,48.23
2018-02-15T02:32:32.118Z,48.39
2018-02-15T02:35:01.218Z,47.81
2018-02-15T02:37:30.320Z,46.93
2018-02-15T02:39:59.414Z,47.18
2018-02-15T02:44:56.787Z,47.58
2018-02-15T02:47:26.806Z,48.32
2018-02-15T02:49:55.905Z,48.08
2018-02-15T02:52:25.009Z,48.03
2018-02-15T02:54:54.096Z,48.29
2018-02-15T02:57:23.213Z,48.39
2018-02-15T02:59:52.330Z,48.42
2018-02-15T03:02:22.173Z,48.95
2018-02-15T03:04:51.285Z,48.84
2018-02-15T03:07:20.459Z,47.84
2018-02-15T03:09:49.578Z,48.03
2018-02-15T03:12:18.680Z,47.89
2018-02-15T03:14:47.801Z,47.90
2018-02-15T03:17:16.911Z,47.76
2018-02-15T03:19:46.004Z,48.07
2018-02-15T03:22:15.115Z,48.43
2018-02-15T03:24:44.976Z,48.63
2018-02-15T03:27:14.081Z,48.48
2018-02-15T03:29:43.192Z,48.23
2018-02-15T03:32:12.302Z,48.42
2018-02-15T03:34:41.400Z,48.59
2018-02-15T03:37:10.508Z,49.14
2018-02-15T03:39:40.374Z,49.59
2018-02-15T03:42:09.499Z,49.27
2018-02-15T03:44:38.601Z,49.51
2018-02-15T03:47:07.691Z,49.55
2018-02-15T03:49:36.811Z,48.77
2018-02-15T03:52:06.675Z,49.09
2018-02-15T03:54:36.569Z,48.92
2018-02-15T03:57:06.254Z,48.33
2018-02-15T03:59:36.130Z,48.65
2018-02-15T04:02:05.262Z,49.11
2018-02-15T04:04:35.144Z,49.13
2018-02-15T04:07:05.742Z,49.67
2018-02-15T04:09:34.848Z,49.29
2018-02-15T04:12:03.998Z,48.97
2018-02-15T04:14:33.092Z,49.27
2018-02-15T04:17:02.951Z,48.99
2018-02-15T04:19:32.070Z,48.77
2018-02-15T04:22:01.159Z,49.19
2018-02-15T04:24:30.261Z,49.28
2018-02-15T04:26:59.374Z,49.11
2018-02-15T04:29:28.473Z,49.59
2018-02-15T04:31:58.361Z,49.60
2018-02-15T04:34:27.445Z,50.49
2018-02-15T04:36:56.560Z,49.30
2018-02-15T04:39:27.161Z,49.18
2018-02-15T04:41:56.280Z,49.38
2018-02-15T04:44:25.376Z,49.62
2018-02-15T04:46:54.483Z,50.00
2018-02-15T04:49:23.616Z,49.93
2018-02-15T04:51:53.496Z,50.46
2018-02-15T04:54:22.614Z,50.42
2018-02-15T04:56:51.709Z,50.35
2018-02-15T04:59:21.597Z,50.33
2018-02-15T05:01:50.715Z,50.22
2018-02-15T05:04:19.826Z,50.40
2018-02-15T05:06:49.687Z,50.71
2018-02-15T05:09:18.837Z,51.01
2018-02-15T05:11:48.692Z,51.21
2018-02-15T05:14:17.788Z,51.41
2018-02-15T05:16:46.898Z,51.65
2018-02-15T05:19:16.004Z,51.89
2018-02-15T05:21:45.113Z,52.13
2018-02-15T05:24:14.208Z,52.60
2018-02-15T05:26:43.329Z,52.46
2018-02-15T05:29:13.187Z,52.24
2018-02-15T05:31:42.295Z,52.17
2018-02-15T05:34:11.390Z,51.79
2018-02-15T05:36:40.510Z,52.42
2018-02-15T05:39:09.627Z,52.05
2018-02-15T05:41:39.505Z,52.14
2018-02-15T05:44:08.618Z,52.07
2018-02-15T05:46:37.746Z,52.10
2018-02-15T05:49:06.836Z,52.03
2018-02-15T05:51:36.690Z,51.73
2018-02-15T05:54:05.809Z,52.29
2018-02-15T05:56:34.913Z,52.38
2018-02-15T05:59:04.027Z,52.04
2018-02-15T06:01:33.913Z,52.01
2018-02-15T06:04:03.102Z,51.16
2018-02-15T06:06:32.900Z,51.29
2018-02-15T06:09:02.030Z,51.25
2018-02-15T06:11:31.162Z,51.41
2018-02-15T06:14:01.090Z,51.56
2018-02-15T06:16:30.209Z,51.77
2018-02-15T06:18:59.348Z,51.95
2018-02-15T06:21:28.477Z,52.95
2018-02-15T06:23:57.623Z,52.02
2018-02-15T06:26:26.763Z,52.40
2018-02-15T06:28:56.659Z,51.36
2018-02-15T06:31:26.571Z,51.27
2018-02-15T06:33:55.703Z,51.27
2018-02-15T06:36:25.598Z,51.43
2018-02-15T06:38:54.743Z,51.45
2018-02-15T06:41:23.872Z,51.72
2018-02-15T06:43:53.007Z,52.16
2018-02-15T06:46:22.156Z,52.85
2018-02-15T06:48:51.278Z,52.30
2018-02-15T06:51:21.768Z,52.47
2018-02-15T06:53:50.892Z,52.28
2018-02-15T06:56:20.787Z,52.89
2018-02-15T06:58:49.924Z,53.74
2018-02-15T07:01:19.035Z,53.58
2018-02-15T07:03:48.218Z,54.29
2018-02-15T07:06:17.362Z,54.90
2018-02-15T07:08:46.493Z,54.90
2018-02-15T07:11:16.396Z,56.09
2018-02-15T07:13:45.518Z,56.30
2018-02-15T07:16:14.643Z,57.06
2018-02-15T07:18:43.778Z,60.07
2018-02-15T07:21:17.772Z,60.98
2018-02-15T07:23:47.672Z,61.79
2018-02-15T07:26:16.788Z,63.12
2018-02-15T07:28:45.928Z,64.15
2018-02-15T07:31:15.833Z,65.90
2018-02-15T07:33:45.740Z,66.70
2018-02-15T07:36:14.887Z,67.47
2018-02-15T07:38:44.026Z,67.70
2018-02-15T07:41:13.175Z,68.24
2018-02-15T07:43:43.077Z,68.27
2018-02-15T07:46:12.202Z,68.41
2018-02-15T07:48:41.390Z,68.41
2018-02-15T07:51:10.523Z,68.72
2018-02-15T07:53:39.660Z,69.05
2018-02-15T07:56:08.808Z,69.10
2018-02-15T07:58:37.945Z,68.98
2018-02-15T08:01:07.873Z,69.00
2018-02-15T08:03:37.014Z,69.57
2018-02-15T08:06:06.146Z,69.51
2018-02-15T08:08:36.048Z,69.89
2018-02-15T08:11:05.178Z,69.85
2018-02-15T08:13:34.330Z,70.39
2018-02-15T08:16:03.456Z,70.05
2018-02-15T08:18:33.359Z,69.93
2018-02-15T08:21:03.262Z,69.22
2018-02-15T08:23:32.428Z,70.32
2018-02-15T08:26:01.570Z,70.54
2018-02-15T08:28:30.706Z,69.69
2018-02-15T08:30:59.827Z,70.27
2018-02-15T08:33:28.955Z,70.24
2018-02-15T08:35:58.094Z,70.30
2018-02-15T08:38:27.229Z,71.17
2018-02-15T08:40:56.380Z,71.22
2018-02-15T08:43:25.509Z,71.39
2018-02-15T08:45:54.652Z,71.44
2018-02-15T08:48:24.554Z,71.73
2018-02-15T08:50:54.483Z,71.66
2018-02-15T08:53:24.369Z,72.19
2018-02-15T08:55:53.506Z,72.85
2018-02-15T08:58:22.650Z,73.15
2018-02-15T09:00:51.783Z,72.98
2018-02-15T09:03:21.710Z,73.25
2018-02-15T09:05:51.615Z,73.73
2018-02-15T09:08:21.583Z,73.80
2018-02-15T09:10:50.752Z,73.47
2018-02-15T09:13:19.876Z,73.99
2018-02-15T09:15:48.991Z,74.54
2018-02-15T09:18:18.132Z,74.59
2018-02-15T09:20:48.042Z,74.81
2018-02-15T09:23:17.947Z,75.07
2018-02-15T09:25:47.834Z,74.79
2018-02-15T09:28:16.986Z,75.38
2018-02-15T09:30:46.123Z,75.42
2018-02-15T09:33:15.282Z,75.32
2018-02-15T09:35:44.414Z,75.74
2018-02-15T09:38:13.563Z,75.99
2018-02-15T09:40:42.706Z,75.95
2018-02-15T09:43:11.871Z,76.35
2018-02-15T09:45:40.998Z,76.38
2018-02-15T09:48:10.169Z,76.37
2018-02-15T09:50:39.316Z,76.29
2018-02-15T09:53:08.446Z,76.24
2018-02-15T09:55:37.587Z,76.32
2018-02-15T09:58:06.726Z,75.94
2018-02-15T10:00:36.635Z,76.00
2018-02-15T10:03:05.767Z,76.03
2018-02-15T10:05:34.906Z,75.73
2018-02-15T10:08:04.015Z,75.75
2018-02-15T10:10:33.166Z,76.02
2018-02-15T10:13:02.295Z,75.93
2018-02-15T10:15:31.440Z,74.99
2018-02-15T10:18:01.392Z,74.90
2018-02-15T10:20:31.306Z,75.10
2018-02-15T10:23:00.432Z,75.09
2018-02-15T10:25:29.561Z,75.14
2018-02-15T10:27:58.713Z,75.27
2018-02-15T10:30:27.846Z,75.85
2018-02-15T10:32:57.787Z,75.67
2018-02-15T10:35:26.915Z,75.76
2018-02-15T10:37:56.065Z,75.35
2018-02-15T10:40:25.264Z,75.51
2018-02-15T10:42:54.395Z,75.91
2018-02-15T10:45:23.538Z,75.71
2018-02-15T10:47:53.465Z,76.00
2018-02-15T10:50:23.377Z,76.28
2018-02-15T10:52:52.546Z,76.87
2018-02-15T10:55:21.682Z,76.88
2018-02-15T10:57:50.845Z,76.91
2018-02-15T11:00:19.986Z,77.22
2018-02-15T11:02:54.695Z,77.30
2018-02-15T11:05:29.630Z,77.04
2018-02-15T11:07:58.777Z,76.99
2018-02-15T11:10:27.928Z,77.22
2018-02-15T11:12:57.841Z,77.47
2018-02-15T11:15:27.011Z,77.76
2018-02-15T11:17:56.152Z,78.07
2018-02-15T11:20:25.278Z,78.38
2018-02-15T11:22:54.435Z,78.73
2018-02-15T11:25:23.576Z,79.01
2018-02-15T11:27:52.803Z,77.88
2018-02-15T11:30:21.934Z,78.33
2018-02-15T11:32:51.080Z,77.92
2018-02-15T11:35:20.216Z,78.33
2018-02-15T11:37:49.356Z,78.02
2018-02-15T11:40:18.514Z,78.62
2018-02-15T11:42:47.685Z,78.99
2018-02-15T11:45:16.831Z,78.92
2018-02-15T11:47:45.978Z,79.68
2018-02-15T11:50:15.091Z,79.68
2018-02-15T11:52:44.233Z,79.53
2018-02-15T11:55:14.119Z,79.31
2018-02-15T11:57:43.286Z,79.35
2018-02-15T12:00:13.196Z,79.71
2018-02-15T12:02:42.342Z,79.62
2018-02-15T12:05:11.491Z,79.61
2018-02-15T12:07:40.648Z,79.34
2018-02-15T12:10:09.782Z,79.31
2018-02-15T12:12:38.929Z,80.21
2018-02-15T12:15:08.066Z,80.42
2018-02-15T12:17:37.229Z,80.22
2018-02-15T12:20:06.353Z,80.24
2018-02-15T12:22:35.520Z,80.36
2018-02-15T12:25:04.692Z,80.65
2018-02-15T12:27:33.836Z,80.57
2018-02-15T12:30:03.005Z,80.17
2018-02-15T12:32:32.160Z,80.18
2018-02-15T12:35:01.309Z,79.90
2018-02-15T12:37:30.448Z,79.77
2018-02-15T12:39:59.711Z,79.89
2018-02-15T12:42:28.863Z,79.74
2018-02-15T12:44:58.782Z,79.76
2018-02-15T12:47:28.694Z,79.65
2018-02-15T12:49:58.581Z,80.08
2018-02-15T12:52:27.739Z,80.40
2018-02-15T12:54:56.897Z,80.10
2018-02-15T12:57:26.797Z,80.06
2018-02-15T12:59:55.970Z,80.50
2018-02-15T13:02:25.110Z,80.24
2018-02-15T13:04:55.723Z,80.65
2018-02-15T13:07:24.856Z,80.19
2018-02-15T13:09:54.024Z,80.15
2018-02-15T13:12:41.182Z,79.76
2018-02-15T13:15:28.111Z,79.80
2018-02-15T13:17:57.253Z,80.01
2018-02-15T13:20:26.386Z,80.28
2018-02-15T13:22:55.538Z,80.23
2018-02-15T13:25:24.722Z,79.96
2018-02-15T13:41:34.323Z,80.56
2018-02-15T13:44:03.455Z,79.97
2018-02-15T13:46:32.617Z,80.09
2018-02-15T13:49:02.503Z,80.16
2018-02-15T13:51:32.415Z,80.26
2018-02-15T13:54:02.478Z,80.49
2018-02-15T13:56:31.716Z,80.37
2018-02-15T13:59:00.864Z,80.28
2018-02-15T14:01:30.009Z,80.04
2018-02-15T14:03:59.135Z,80.12
2018-02-15T14:06:28.280Z,79.56
2018-02-15T14:08:57.439Z,79.76
2018-02-15T14:11:26.564Z,79.87
2018-02-15T14:13:55.719Z,79.75
2018-02-15T14:16:24.847Z,79.84
2018-02-15T14:18:53.993Z,79.14
2018-02-15T14:21:24.483Z,79.19
2018-02-15T14:23:53.643Z,79.11
2018-02-15T14:26:22.776Z,79.01
2018-02-15T14:28:51.947Z,79.35
2018-02-15T14:31:21.080Z,79.61
2018-02-15T14:33:50.234Z,79.84
2018-02-15T14:36:19.384Z,79.53
2018-02-15T14:38:48.548Z,78.98
2018-02-15T14:41:17.676Z,79.38
2018-02-15T14:43:46.827Z,79.79
2018-02-15T14:46:15.938Z,79.88
2018-02-15T14:48:45.053Z,80.15
2018-02-15T14:51:14.360Z,80.34
2018-02-15T14:53:43.507Z,80.49
2018-02-15T14:56:13.413Z,81.02
2018-02-15T14:58:43.327Z,81.11
2018-02-15T15:01:13.242Z,81.26
2018-02-15T15:03:42.434Z,81.31
2018-02-15T15:06:11.604Z,81.40
2018-02-15T15:08:40.752Z,81.50
2018-02-15T15:11:09.912Z,81.47
2018-02-15T15:13:39.049Z,81.44
2018-02-15T15:16:08.211Z,81.55
2018-02-15T15:18:38.164Z,81.66
2018-02-15T15:21:07.340Z,81.83
2018-02-15T15:23:37.289Z,81.41
2018-02-15T15:26:08.325Z,81.42
2018-02-15T15:28:37.447Z,81.53
2018-02-15T15:31:07.379Z,81.49
2018-02-15T15:33:36.524Z,81.05
2018-02-15T15:36:05.670Z,81.26
2018-02-15T15:38:34.823Z,81.19
2018-02-15T15:41:03.997Z,81.26
2018-02-15T15:43:33.914Z,81.57
2018-02-15T15:46:03.845Z,81.70
2018-02-15T15:48:32.976Z,81.04
2018-02-15T15:51:02.140Z,81.16
2018-02-15T15:53:31.282Z,81.13
2018-02-15T15:56:00.448Z,81.38
2018-02-15T15:58:29.579Z,81.47
2018-02-15T16:00:58.691Z,82.14
2018-02-15T16:03:27.865Z,82.21
2018-02-15T16:05:57.033Z,82.37
2018-02-15T16:08:26.196Z,82.42
2018-02-15T16:10:55.319Z,82.50
2018-02-15T16:13:24.454Z,82.56
2018-02-15T16:15:53.591Z,82.59
2018-02-15T16:18:22.718Z,82.49
2018-02-15T16:20:52.647Z,82.56
2018-02-15T16:23:22.584Z,82.65
2018-02-15T16:25:51.763Z,82.79
2018-02-15T16:28:22.609Z,82.84
2018-02-15T16:30:52.535Z,82.85
2018-02-15T16:33:21.672Z,83.14
2018-02-15T16:35:50.841Z,83.21
2018-02-15T16:38:20.000Z,83.28
2018-02-15T16:40:50.946Z,83.30
2018-02-15T16:43:20.873Z,83.34
2018-02-15T16:45:50.012Z,83.19
2018-02-15T16:48:19.166Z,83.20
2018-02-15T16:50:49.095Z,83.24
2018-02-15T16:53:18.220Z,83.29
2018-02-15T16:55:47.385Z,83.34
2018-02-15T16:58:16.558Z,83.40
2018-02-15T17:00:46.464Z,83.37
2018-02-15T17:03:16.439Z,83.08
2018-02-15T17:05:45.578Z,82.64
2018-02-15T17:08:14.728Z,82.39
2018-02-15T17:10:43.885Z,82.39
2018-02-15T17:13:13.849Z,82.50
2018-02-15T17:15:42.976Z,82.67
2018-02-15T17:18:12.172Z,82.99
2018-02-15T17:20:42.259Z,83.09
2018-02-15T17:23:11.403Z,83.40
2018-02-15T17:25:40.519Z,83.46
2018-02-15T17:28:09.669Z,82.91
2018-02-15T17:30:38.816Z,83.12
2018-02-15T17:33:08.722Z,83.37
2018-02-15T17:35:38.628Z,83.17
2018-02-15T17:51:06.685Z,82.68
2018-02-15T17:53:36.629Z,82.79
2018-02-15T17:56:06.446Z,83.25
2018-02-15T17:58:35.585Z,83.54
2018-02-15T18:01:04.754Z,83.44
2018-02-15T18:03:33.941Z,83.46
2018-02-15T18:06:03.098Z,83.79
2018-02-15T18:08:32.250Z,83.55
2018-02-15T18:11:01.415Z,83.74
2018-02-15T18:13:30.576Z,83.95
2018-02-15T18:15:59.699Z,84.28
2018-02-15T18:18:29.626Z,84.20
2018-02-15T18:20:58.760Z,84.20
2018-02-15T18:23:27.931Z,84.07
2018-02-15T18:25:57.069Z,83.99
2018-02-15T18:28:26.228Z,84.04
2018-02-15T18:30:55.396Z,84.25
2018-02-15T18:33:25.314Z,84.27
2018-02-15T18:35:55.249Z,84.34
2018-02-15T18:38:24.401Z,84.43
2018-02-15T18:40:53.586Z,84.56
2018-02-15T18:43:22.736Z,84.54
2018-02-15T18:45:52.135Z,84.61
2018-02-15T18:48:22.066Z,84.71
2018-02-15T18:50:51.217Z,84.44
2018-02-15T18:53:20.402Z,84.34
2018-02-15T18:55:49.550Z,84.33
2018-02-15T18:58:18.700Z,84.36
2018-02-15T19:00:47.864Z,84.39
2018-02-15T19:03:17.587Z,84.58
2018-02-15T19:05:46.723Z,84.68
2018-02-15T19:08:16.636Z,84.74
2018-02-15T19:10:45.793Z,84.86
2018-02-15T19:13:14.944Z,84.96
2018-02-15T19:15:44.881Z,84.94
2018-02-15T19:18:14.018Z,85.01
2018-02-15T19:20:43.186Z,85.04
2018-02-15T19:23:12.328Z,85.09
2018-02-15T19:25:41.491Z,85.16
2018-02-15T19:28:10.632Z,85.21
2018-02-15T19:30:39.752Z,84.93
2018-02-15T19:33:08.944Z,84.28
2018-02-15T19:35:38.874Z,84.23
2018-02-15T19:38:08.039Z,84.34
2018-02-15T19:40:37.215Z,84.47
2018-02-15T19:43:07.158Z,84.54
2018-02-15T19:45:37.114Z,84.66
2018-02-15T19:48:06.298Z,84.69
2018-02-15T19:50:35.479Z,84.35
2018-02-15T19:53:05.403Z,84.49
2018-02-15T19:55:34.557Z,84.53
2018-02-15T19:58:03.716Z,84.59
2018-02-15T20:00:33.626Z,84.72
2018-02-15T20:03:02.803Z,84.82
2018-02-15T20:05:31.945Z,84.96
2018-02-15T20:08:01.101Z,84.92
2018-02-15T20:10:31.002Z,84.99
2018-02-15T20:13:00.899Z,85.09
2018-02-15T20:15:35.624Z,85.04
2018-02-15T20:18:04.767Z,84.76
2018-02-15T20:20:33.930Z,84.52
2018-02-15T20:23:03.845Z,84.25
2018-02-15T20:25:33.762Z,84.19
2018-02-15T20:28:08.332Z,84.43
2018-02-15T20:30:37.501Z,83.80
2018-02-15T20:33:07.431Z,83.90
2018-02-15T20:35:36.591Z,84.23
2018-02-15T20:38:12.042Z,84.29
2018-02-15T20:40:41.203Z,83.85
2018-02-15T20:43:10.349Z,83.92
2018-02-15T20:45:40.297Z,84.09
2018-02-15T20:48:09.428Z,83.46
2018-02-15T20:50:43.981Z,83.79
2018-02-15T20:53:19.526Z,83.53
2018-02-15T20:55:49.453Z,83.73
2018-02-15T20:58:19.428Z,84.03
2018-02-15T21:00:48.588Z,84.34
2018-02-15T21:03:17.746Z,84.51
2018-02-15T21:05:47.195Z,84.52
2018-02-15T21:08:16.320Z,84.58
2018-02-15T21:10:45.487Z,84.70
2018-02-15T21:13:14.644Z,84.79
2018-02-15T21:15:44.602Z,84.83
2018-02-15T21:18:13.762Z,84.87
2018-02-15T21:20:43.676Z,85.09
2018-02-15T21:23:12.828Z,85.02
2018-02-15T21:25:42.009Z,85.06
2018-02-15T21:28:11.152Z,85.11
2018-02-15T21:30:41.901Z,85.34
2018-02-15T21:33:12.628Z,85.11
2018-02-15T21:35:41.759Z,85.14
2018-02-15T21:38:11.928Z,85.18
2018-02-15T21:40:41.063Z,85.06
2018-02-15T21:43:11.009Z,84.92
2018-02-15T21:45:40.162Z,84.95
2018-02-15T21:48:10.094Z,85.29
2018-02-15T21:50:40.004Z,85.40
2018-02-15T21:53:10.771Z,85.17
2018-02-15T21:55:39.930Z,85.27
2018-02-15T21:58:09.847Z,85.19
2018-02-15T22:00:39.753Z,85.42
2018-02-15T22:03:08.915Z,85.45
2018-02-15T22:05:38.040Z,85.58
2018-02-15T22:08:07.933Z,85.89
2018-02-15T22:10:37.076Z,86.04
2018-02-15T22:13:07.034Z,86.18
2018-02-15T22:15:36.174Z,86.19
2018-02-15T22:18:05.302Z,86.20
2018-02-15T22:20:34.413Z,86.18
2018-02-15T22:23:03.542Z,86.28
2018-02-15T22:25:32.670Z,86.25
2018-02-15T22:28:02.547Z,86.27
2018-02-15T22:30:31.700Z,86.32
2018-02-15T22:33:00.814Z,86.36
2018-02-15T22:35:29.963Z,86.13
2018-02-15T22:37:59.065Z,85.71
2018-02-15T22:40:28.949Z,85.48
2018-02-15T22:42:58.054Z,85.49
2018-02-15T22:45:27.188Z,85.57
2018-02-15T22:47:57.037Z,85.68
2018-02-15T22:50:26.152Z,85.27
2018-02-15T22:52:55.270Z,84.91
2018-02-15T22:55:24.366Z,84.84
2018-02-15T22:57:53.466Z,85.13
2018-02-15T23:00:23.345Z,85.49
2018-02-15T23:02:52.451Z,85.51
2018-02-15T23:05:21.586Z,85.26
2018-02-15T23:07:51.490Z,85.43
2018-02-15T23:10:20.611Z,85.58
2018-02-15T23:12:49.747Z,85.46
2018-02-15T23:15:18.881Z,85.74
2018-02-15T23:17:47.985Z,85.61
2018-02-15T23:20:17.898Z,86.11
2018-02-15T23:22:46.997Z,86.13
2018-02-15T23:25:16.882Z,86.27
2018-02-15T23:27:45.960Z,86.03
2018-02-15T23:30:17.920Z,86.00
2018-02-15T23:32:47.771Z,86.09
2018-02-15T23:35:17.660Z,86.07
2018-02-15T23:37:47.558Z,86.25
2018-02-15T23:40:16.661Z,86.68
2018-02-15T23:42:45.772Z,86.92
2018-02-15T23:45:14.899Z,87.13
2018-02-15T23:47:44.791Z,87.01
2018-02-15T23:50:13.937Z,87.24
2018-02-15T23:52:43.058Z,87.28
2018-02-15T23:55:12.162Z,87.38
2018-02-15T23:57:41.260Z,87.53
